sensor_id;sensor_type;location;lat;lon;timestamp;P1;durP1;ratioP1;P2;durP2;ratioP2
2035;SDS011;23642;42.658;23.350;2023-03-11T00:00:50;71.20;;;66.57;;
2035;SDS011;23642;42.658;23.350;2023-03-11T00:03:19;64.50;;;60.70;;
2035;SDS011;23642;42.658;23.350;2023-03-11T00:05:49;59.93;;;56.43;;
2035;SDS011;23642;42.658;23.350;2023-03-11T00:08:18;56.43;;;53.20;;
2035;SDS011;23642;42.658;23.350;2023-03-11T00:10:50;57.60;;;54.30;;
2035;SDS011;23642;42.658;23.350;2023-03-11T00:13:19;56.63;;;53.47;;
2035;SDS011;23642;42.658;23.350;2023-03-11T00:15:48;59.23;;;56.13;;
2035;SDS011;23642;42.658;23.350;2023-03-11T00:18:20;58.17;;;55.07;;
2035;SDS011;23642;42.658;23.350;2023-03-11T00:20:49;58.63;;;55.63;;
2035;SDS011;23642;42.658;23.350;2023-03-11T00:23:16;58.63;;;55.60;;
2035;SDS011;23642;42.658;23.350;2023-03-11T00:25:43;56.83;;;53.87;;
2035;SDS011;23642;42.658;23.350;2023-03-11T00:28:12;57.80;;;54.70;;
2035;SDS011;23642;42.658;23.350;2023-03-11T00:30:40;57.90;;;54.83;;
2035;SDS011;23642;42.658;23.350;2023-03-11T00:33:09;56.43;;;53.53;;
2035;SDS011;23642;42.658;23.350;2023-03-11T00:35:36;57.03;;;54.03;;
2035;SDS011;23642;42.658;23.350;2023-03-11T00:38:04;57.00;;;54.00;;
2035;SDS011;23642;42.658;23.350;2023-03-11T00:40:32;58.00;;;54.93;;
2035;SDS011;23642;42.658;23.350;2023-03-11T00:43:00;56.77;;;53.77;;
2035;SDS011;23642;42.658;23.350;2023-03-11T00:45:29;58.07;;;54.97;;
2035;SDS011;23642;42.658;23.350;2023-03-11T00:47:56;57.70;;;54.70;;
2035;SDS011;23642;42.658;23.350;2023-03-11T00:50:23;57.70;;;54.70;;
2035;SDS011;23642;42.658;23.350;2023-03-11T00:52:51;56.47;;;53.57;;
2035;SDS011;23642;42.658;23.350;2023-03-11T00:55:20;55.27;;;52.43;;
2035;SDS011;23642;42.658;23.350;2023-03-11T00:57:50;56.40;;;53.50;;
2035;SDS011;23642;42.658;23.350;2023-03-11T01:00:18;56.10;;;53.20;;
2035;SDS011;23642;42.658;23.350;2023-03-11T01:02:48;54.07;;;51.27;;
2035;SDS011;23642;42.658;23.350;2023-03-11T01:05:17;55.00;;;52.10;;
2035;SDS011;23642;42.658;23.350;2023-03-11T01:07:44;54.70;;;51.90;;
2035;SDS011;23642;42.658;23.350;2023-03-11T01:10:12;55.77;;;52.87;;
2035;SDS011;23642;42.658;23.350;2023-03-11T01:12:39;56.10;;;53.20;;
2035;SDS011;23642;42.658;23.350;2023-03-11T01:15:06;56.97;;;54.07;;
2035;SDS011;23642;42.658;23.350;2023-03-11T01:17:34;56.13;;;53.23;;
2035;SDS011;23642;42.658;23.350;2023-03-11T01:20:03;55.47;;;52.57;;
2035;SDS011;23642;42.658;23.350;2023-03-11T01:22:33;57.30;;;54.37;;
2035;SDS011;23642;42.658;23.350;2023-03-11T01:24:59;57.20;;;54.13;;
2035;SDS011;23642;42.658;23.350;2023-03-11T01:27:26;55.57;;;52.77;;
2035;SDS011;23642;42.658;23.350;2023-03-11T01:29:53;54.33;;;51.47;;
2035;SDS011;23642;42.658;23.350;2023-03-11T01:32:20;54.23;;;51.43;;
2035;SDS011;23642;42.658;23.350;2023-03-11T01:34:46;53.30;;;50.60;;
2035;SDS011;23642;42.658;23.350;2023-03-11T01:37:14;52.87;;;50.23;;
2035;SDS011;23642;42.658;23.350;2023-03-11T01:39:41;53.47;;;50.77;;
2035;SDS011;23642;42.658;23.350;2023-03-11T01:42:08;55.00;;;52.00;;
2035;SDS011;23642;42.658;23.350;2023-03-11T01:44:37;54.37;;;51.47;;
2035;SDS011;23642;42.658;23.350;2023-03-11T01:50:12;55.37;;;52.50;;
2035;SDS011;23642;42.658;23.350;2023-03-11T01:52:41;56.33;;;53.33;;
2035;SDS011;23642;42.658;23.350;2023-03-11T01:55:10;55.80;;;52.90;;
2035;SDS011;23642;42.658;23.350;2023-03-11T01:57:39;56.70;;;53.70;;
2035;SDS011;23642;42.658;23.350;2023-03-11T02:00:09;54.70;;;51.83;;
2035;SDS011;23642;42.658;23.350;2023-03-11T02:02:40;54.90;;;52.00;;
2035;SDS011;23642;42.658;23.350;2023-03-11T02:05:11;54.37;;;51.50;;
2035;SDS011;23642;42.658;23.350;2023-03-11T02:07:38;52.90;;;50.20;;
2035;SDS011;23642;42.658;23.350;2023-03-11T02:10:07;54.27;;;51.40;;
2035;SDS011;23642;42.658;23.350;2023-03-11T02:12:37;54.40;;;51.50;;
2035;SDS011;23642;42.658;23.350;2023-03-11T02:15:06;53.00;;;50.20;;
2035;SDS011;23642;42.658;23.350;2023-03-11T02:17:35;52.80;;;50.00;;
2035;SDS011;23642;42.658;23.350;2023-03-11T02:20:10;55.00;;;52.10;;
2035;SDS011;23642;42.658;23.350;2023-03-11T02:22:41;54.30;;;51.40;;
2035;SDS011;23642;42.658;23.350;2023-03-11T02:25:10;53.23;;;50.43;;
2035;SDS011;23642;42.658;23.350;2023-03-11T02:27:46;52.57;;;49.87;;
2035;SDS011;23642;42.658;23.350;2023-03-11T02:30:15;54.20;;;51.30;;
2035;SDS011;23642;42.658;23.350;2023-03-11T02:32:43;53.77;;;50.77;;
2035;SDS011;23642;42.658;23.350;2023-03-11T02:35:13;54.17;;;51.17;;
2035;SDS011;23642;42.658;23.350;2023-03-11T02:37:45;53.80;;;50.90;;
2035;SDS011;23642;42.658;23.350;2023-03-11T02:40:27;55.17;;;52.17;;
2035;SDS011;23642;42.658;23.350;2023-03-11T02:43:08;56.60;;;53.40;;
2035;SDS011;23642;42.658;23.350;2023-03-11T02:45:38;54.40;;;51.40;;
2035;SDS011;23642;42.658;23.350;2023-03-11T02:48:07;56.50;;;53.40;;
2035;SDS011;23642;42.658;23.350;2023-03-11T02:50:36;56.00;;;52.80;;
2035;SDS011;23642;42.658;23.350;2023-03-11T02:53:05;56.63;;;53.43;;
2035;SDS011;23642;42.658;23.350;2023-03-11T02:55:32;57.40;;;54.20;;
2035;SDS011;23642;42.658;23.350;2023-03-11T02:58:02;56.53;;;53.43;;
2035;SDS011;23642;42.658;23.350;2023-03-11T03:00:30;57.57;;;54.17;;
2035;SDS011;23642;42.658;23.350;2023-03-11T03:02:58;56.60;;;53.40;;
2035;SDS011;23642;42.658;23.350;2023-03-11T03:05:25;58.80;;;55.23;;
2035;SDS011;23642;42.658;23.350;2023-03-11T03:07:52;60.17;;;56.60;;
2035;SDS011;23642;42.658;23.350;2023-03-11T03:10:19;60.17;;;56.57;;
2035;SDS011;23642;42.658;23.350;2023-03-11T03:12:47;59.67;;;56.17;;
2035;SDS011;23642;42.658;23.350;2023-03-11T03:15:14;60.97;;;57.37;;
2035;SDS011;23642;42.658;23.350;2023-03-11T03:17:42;60.77;;;57.13;;
2035;SDS011;23642;42.658;23.350;2023-03-11T03:20:10;60.93;;;57.13;;
2035;SDS011;23642;42.658;23.350;2023-03-11T03:22:38;61.20;;;57.60;;
2035;SDS011;23642;42.658;23.350;2023-03-11T03:25:06;59.80;;;56.40;;
2035;SDS011;23642;42.658;23.350;2023-03-11T03:27:34;63.50;;;59.53;;
2035;SDS011;23642;42.658;23.350;2023-03-11T03:30:01;63.10;;;59.50;;
2035;SDS011;23642;42.658;23.350;2023-03-11T03:32:28;61.33;;;57.73;;
2035;SDS011;23642;42.658;23.350;2023-03-11T03:34:59;61.20;;;57.60;;
2035;SDS011;23642;42.658;23.350;2023-03-11T03:37:26;60.77;;;57.17;;
2035;SDS011;23642;42.658;23.350;2023-03-11T03:39:54;61.50;;;57.90;;
2035;SDS011;23642;42.658;23.350;2023-03-11T03:42:21;62.27;;;58.67;;
2035;SDS011;23642;42.658;23.350;2023-03-11T03:44:49;61.90;;;58.47;;
2035;SDS011;23642;42.658;23.350;2023-03-11T03:47:17;61.43;;;57.93;;
2035;SDS011;23642;42.658;23.350;2023-03-11T03:49:44;62.33;;;58.57;;
2035;SDS011;23642;42.658;23.350;2023-03-11T03:52:13;63.70;;;60.10;;
2035;SDS011;23642;42.658;23.350;2023-03-11T03:54:40;62.80;;;59.07;;
2035;SDS011;23642;42.658;23.350;2023-03-11T03:57:07;62.90;;;59.20;;
2035;SDS011;23642;42.658;23.350;2023-03-11T03:59:34;65.27;;;61.50;;
2035;SDS011;23642;42.658;23.350;2023-03-11T04:02:00;67.13;;;62.97;;
2035;SDS011;23642;42.658;23.350;2023-03-11T04:04:29;66.30;;;62.40;;
2035;SDS011;23642;42.658;23.350;2023-03-11T04:06:56;67.50;;;63.37;;
2035;SDS011;23642;42.658;23.350;2023-03-11T04:09:27;68.83;;;64.20;;
2035;SDS011;23642;42.658;23.350;2023-03-11T04:11:53;73.77;;;68.67;;
2035;SDS011;23642;42.658;23.350;2023-03-11T04:14:20;78.80;;;73.50;;
2035;SDS011;23642;42.658;23.350;2023-03-11T04:16:47;79.87;;;74.37;;
2035;SDS011;23642;42.658;23.350;2023-03-11T04:19:16;82.20;;;76.50;;
2035;SDS011;23642;42.658;23.350;2023-03-11T04:21:42;83.90;;;78.20;;
2035;SDS011;23642;42.658;23.350;2023-03-11T04:24:09;80.50;;;75.30;;
2035;SDS011;23642;42.658;23.350;2023-03-11T04:26:40;80.10;;;74.90;;
2035;SDS011;23642;42.658;23.350;2023-03-11T04:29:07;79.40;;;74.30;;
2035;SDS011;23642;42.658;23.350;2023-03-11T04:31:38;78.77;;;73.67;;
2035;SDS011;23642;42.658;23.350;2023-03-11T04:34:05;78.60;;;73.43;;
2035;SDS011;23642;42.658;23.350;2023-03-11T04:36:32;77.27;;;72.37;;
2035;SDS011;23642;42.658;23.350;2023-03-11T04:38:59;77.87;;;72.70;;
2035;SDS011;23642;42.658;23.350;2023-03-11T04:41:26;77.37;;;72.27;;
2035;SDS011;23642;42.658;23.350;2023-03-11T04:43:54;77.40;;;71.83;;
2035;SDS011;23642;42.658;23.350;2023-03-11T04:46:21;80.93;;;75.07;;
2035;SDS011;23642;42.658;23.350;2023-03-11T04:48:48;80.70;;;75.20;;
2035;SDS011;23642;42.658;23.350;2023-03-11T04:51:15;87.83;;;81.80;;
2035;SDS011;23642;42.658;23.350;2023-03-11T04:53:43;90.63;;;84.33;;
2035;SDS011;23642;42.658;23.350;2023-03-11T04:56:10;93.50;;;86.90;;
2035;SDS011;23642;42.658;23.350;2023-03-11T04:58:36;98.63;;;91.83;;
2035;SDS011;23642;42.658;23.350;2023-03-11T05:01:04;99.27;;;92.37;;
2035;SDS011;23642;42.658;23.350;2023-03-11T05:03:31;98.83;;;91.93;;
2035;SDS011;23642;42.658;23.350;2023-03-11T05:05:58;100.73;;;93.90;;
2035;SDS011;23642;42.658;23.350;2023-03-11T05:08:25;101.70;;;94.80;;
2035;SDS011;23642;42.658;23.350;2023-03-11T05:10:52;99.50;;;92.80;;
2035;SDS011;23642;42.658;23.350;2023-03-11T05:13:19;99.77;;;93.17;;
2035;SDS011;23642;42.658;23.350;2023-03-11T05:15:46;97.50;;;91.00;;
2035;SDS011;23642;42.658;23.350;2023-03-11T05:18:14;95.20;;;89.00;;
2035;SDS011;23642;42.658;23.350;2023-03-11T05:20:41;95.27;;;89.00;;
2035;SDS011;23642;42.658;23.350;2023-03-11T05:23:08;97.20;;;90.80;;
2035;SDS011;23642;42.658;23.350;2023-03-11T05:25:35;96.80;;;90.43;;
2035;SDS011;23642;42.658;23.350;2023-03-11T05:28:01;95.83;;;89.63;;
2035;SDS011;23642;42.658;23.350;2023-03-11T05:30:28;97.87;;;91.47;;
2035;SDS011;23642;42.658;23.350;2023-03-11T05:32:55;97.67;;;91.17;;
2035;SDS011;23642;42.658;23.350;2023-03-11T05:35:24;98.47;;;92.07;;
2035;SDS011;23642;42.658;23.350;2023-03-11T05:37:51;96.97;;;90.57;;
2035;SDS011;23642;42.658;23.350;2023-03-11T05:40:19;98.60;;;92.30;;
2035;SDS011;23642;42.658;23.350;2023-03-11T05:42:46;98.53;;;92.17;;
2035;SDS011;23642;42.658;23.350;2023-03-11T05:45:13;97.47;;;91.17;;
2035;SDS011;23642;42.658;23.350;2023-03-11T05:47:40;97.43;;;91.03;;
2035;SDS011;23642;42.658;23.350;2023-03-11T05:50:08;96.80;;;90.50;;
2035;SDS011;23642;42.658;23.350;2023-03-11T05:52:37;98.17;;;91.87;;
2035;SDS011;23642;42.658;23.350;2023-03-11T05:55:04;97.40;;;91.17;;
2035;SDS011;23642;42.658;23.350;2023-03-11T05:57:33;97.60;;;91.30;;
2035;SDS011;23642;42.658;23.350;2023-03-11T06:00:00;99.10;;;92.70;;
2035;SDS011;23642;42.658;23.350;2023-03-11T06:02:27;99.00;;;92.70;;
2035;SDS011;23642;42.658;23.350;2023-03-11T06:04:54;97.73;;;91.40;;
2035;SDS011;23642;42.658;23.350;2023-03-11T06:07:21;96.03;;;89.63;;
2035;SDS011;23642;42.658;23.350;2023-03-11T06:09:49;98.10;;;91.80;;
2035;SDS011;23642;42.658;23.350;2023-03-11T06:12:16;97.53;;;91.27;;
2035;SDS011;23642;42.658;23.350;2023-03-11T06:14:43;96.03;;;89.83;;
2035;SDS011;23642;42.658;23.350;2023-03-11T06:17:10;96.83;;;90.63;;
2035;SDS011;23642;42.658;23.350;2023-03-11T06:19:37;97.80;;;91.50;;
2035;SDS011;23642;42.658;23.350;2023-03-11T06:22:03;97.20;;;90.90;;
2035;SDS011;23642;42.658;23.350;2023-03-11T06:24:30;97.27;;;90.97;;
2035;SDS011;23642;42.658;23.350;2023-03-11T06:26:58;95.63;;;89.33;;
2035;SDS011;23642;42.658;23.350;2023-03-11T06:29:25;98.00;;;91.70;;
2035;SDS011;23642;42.658;23.350;2023-03-11T06:31:53;97.13;;;90.93;;
2035;SDS011;23642;42.658;23.350;2023-03-11T06:34:20;96.70;;;90.50;;
2035;SDS011;23642;42.658;23.350;2023-03-11T06:36:47;97.13;;;90.70;;
2035;SDS011;23642;42.658;23.350;2023-03-11T06:39:16;96.70;;;90.50;;
2035;SDS011;23642;42.658;23.350;2023-03-11T06:41:43;95.17;;;89.07;;
2035;SDS011;23642;42.658;23.350;2023-03-11T06:44:12;98.07;;;91.77;;
2035;SDS011;23642;42.658;23.350;2023-03-11T06:46:38;96.00;;;89.80;;
2035;SDS011;23642;42.658;23.350;2023-03-11T06:49:05;96.30;;;90.10;;
2035;SDS011;23642;42.658;23.350;2023-03-11T06:51:32;97.73;;;91.33;;
2035;SDS011;23642;42.658;23.350;2023-03-11T06:53:59;97.03;;;90.73;;
2035;SDS011;23642;42.658;23.350;2023-03-11T06:56:26;99.73;;;93.30;;
2035;SDS011;23642;42.658;23.350;2023-03-11T06:58:53;97.50;;;91.10;;
2035;SDS011;23642;42.658;23.350;2023-03-11T07:01:22;98.40;;;92.00;;
2035;SDS011;23642;42.658;23.350;2023-03-11T07:03:50;98.80;;;92.40;;
2035;SDS011;23642;42.658;23.350;2023-03-11T07:06:17;98.97;;;92.57;;
2035;SDS011;23642;42.658;23.350;2023-03-11T07:08:46;99.13;;;92.73;;
2035;SDS011;23642;42.658;23.350;2023-03-11T07:11:15;100.23;;;93.73;;
2035;SDS011;23642;42.658;23.350;2023-03-11T07:13:43;100.53;;;93.93;;
2035;SDS011;23642;42.658;23.350;2023-03-11T07:16:11;101.07;;;94.57;;
2035;SDS011;23642;42.658;23.350;2023-03-11T07:18:44;99.77;;;93.27;;
2035;SDS011;23642;42.658;23.350;2023-03-11T07:21:12;99.17;;;92.57;;
2035;SDS011;23642;42.658;23.350;2023-03-11T07:23:40;100.73;;;94.13;;
2035;SDS011;23642;42.658;23.350;2023-03-11T07:26:08;98.97;;;92.57;;
2035;SDS011;23642;42.658;23.350;2023-03-11T07:28:35;102.13;;;95.53;;
2035;SDS011;23642;42.658;23.350;2023-03-11T07:31:07;102.77;;;96.17;;
2035;SDS011;23642;42.658;23.350;2023-03-11T07:33:35;102.10;;;95.57;;
2035;SDS011;23642;42.658;23.350;2023-03-11T07:36:07;99.47;;;92.97;;
2035;SDS011;23642;42.658;23.350;2023-03-11T07:38:37;103.27;;;96.67;;
2035;SDS011;23642;42.658;23.350;2023-03-11T07:41:05;101.57;;;94.97;;
2035;SDS011;23642;42.658;23.350;2023-03-11T07:43:33;101.47;;;94.87;;
2035;SDS011;23642;42.658;23.350;2023-03-11T07:46:04;104.23;;;97.43;;
2035;SDS011;23642;42.658;23.350;2023-03-11T07:48:33;105.93;;;99.03;;
2035;SDS011;23642;42.658;23.350;2023-03-11T07:51:02;103.77;;;96.77;;
2035;SDS011;23642;42.658;23.350;2023-03-11T07:53:32;103.03;;;95.83;;
2035;SDS011;23642;42.658;23.350;2023-03-11T07:56:01;105.43;;;98.63;;
2035;SDS011;23642;42.658;23.350;2023-03-11T07:58:29;105.07;;;98.13;;
2035;SDS011;23642;42.658;23.350;2023-03-11T08:01:01;104.80;;;97.90;;
2035;SDS011;23642;42.658;23.350;2023-03-11T08:03:30;104.00;;;97.30;;
2035;SDS011;23642;42.658;23.350;2023-03-11T08:05:57;106.13;;;99.33;;
2035;SDS011;23642;42.658;23.350;2023-03-11T08:08:24;104.17;;;97.47;;
2035;SDS011;23642;42.658;23.350;2023-03-11T08:10:52;104.03;;;97.20;;
2035;SDS011;23642;42.658;23.350;2023-03-11T08:13:19;102.80;;;96.00;;
2035;SDS011;23642;42.658;23.350;2023-03-11T08:15:46;106.90;;;100.03;;
2035;SDS011;23642;42.658;23.350;2023-03-11T08:18:12;104.00;;;97.37;;
2035;SDS011;23642;42.658;23.350;2023-03-11T08:20:39;107.43;;;100.63;;
2035;SDS011;23642;42.658;23.350;2023-03-11T08:23:06;104.30;;;97.53;;
2035;SDS011;23642;42.658;23.350;2023-03-11T08:25:33;106.70;;;99.70;;
2035;SDS011;23642;42.658;23.350;2023-03-11T08:28:05;107.37;;;100.50;;
2035;SDS011;23642;42.658;23.350;2023-03-11T08:30:33;106.40;;;99.30;;
2035;SDS011;23642;42.658;23.350;2023-03-11T08:33:00;105.07;;;98.40;;
2035;SDS011;23642;42.658;23.350;2023-03-11T08:35:27;107.07;;;100.17;;
2035;SDS011;23642;42.658;23.350;2023-03-11T08:37:54;108.10;;;101.30;;
2035;SDS011;23642;42.658;23.350;2023-03-11T08:40:21;109.53;;;100.50;;
2035;SDS011;23642;42.658;23.350;2023-03-11T08:42:48;104.07;;;97.27;;
2035;SDS011;23642;42.658;23.350;2023-03-11T08:45:16;106.40;;;99.70;;
2035;SDS011;23642;42.658;23.350;2023-03-11T08:47:46;105.00;;;98.00;;
2035;SDS011;23642;42.658;23.350;2023-03-11T08:50:14;106.40;;;99.73;;
2035;SDS011;23642;42.658;23.350;2023-03-11T08:52:42;103.67;;;96.97;;
2035;SDS011;23642;42.658;23.350;2023-03-11T08:55:10;102.87;;;96.20;;
2035;SDS011;23642;42.658;23.350;2023-03-11T08:57:38;104.13;;;97.53;;
2035;SDS011;23642;42.658;23.350;2023-03-11T09:00:07;104.07;;;97.47;;
2035;SDS011;23642;42.658;23.350;2023-03-11T09:02:37;103.67;;;97.17;;
2035;SDS011;23642;42.658;23.350;2023-03-11T09:05:05;105.13;;;98.43;;
2035;SDS011;23642;42.658;23.350;2023-03-11T09:07:32;104.60;;;98.00;;
2035;SDS011;23642;42.658;23.350;2023-03-11T09:09:59;105.70;;;99.00;;
2035;SDS011;23642;42.658;23.350;2023-03-11T09:12:26;105.70;;;99.10;;
2035;SDS011;23642;42.658;23.350;2023-03-11T09:14:54;106.03;;;99.03;;
2035;SDS011;23642;42.658;23.350;2023-03-11T09:17:21;103.23;;;96.73;;
2035;SDS011;23642;42.658;23.350;2023-03-11T09:19:50;105.50;;;98.90;;
2035;SDS011;23642;42.658;23.350;2023-03-11T09:22:17;104.27;;;97.77;;
2035;SDS011;23642;42.658;23.350;2023-03-11T09:24:43;103.80;;;97.30;;
2035;SDS011;23642;42.658;23.350;2023-03-11T09:27:12;105.83;;;99.23;;
2035;SDS011;23642;42.658;23.350;2023-03-11T09:29:39;103.90;;;97.40;;
2035;SDS011;23642;42.658;23.350;2023-03-11T09:32:06;106.07;;;99.37;;
2035;SDS011;23642;42.658;23.350;2023-03-11T09:34:35;104.20;;;97.70;;
2035;SDS011;23642;42.658;23.350;2023-03-11T09:37:03;104.00;;;97.33;;
2035;SDS011;23642;42.658;23.350;2023-03-11T09:39:30;102.03;;;95.63;;
2035;SDS011;23642;42.658;23.350;2023-03-11T09:41:57;103.30;;;96.50;;
2035;SDS011;23642;42.658;23.350;2023-03-11T09:44:29;104.97;;;97.77;;
2035;SDS011;23642;42.658;23.350;2023-03-11T09:47:06;103.77;;;96.67;;
2035;SDS011;23642;42.658;23.350;2023-03-11T09:49:51;105.43;;;98.60;;
2035;SDS011;23642;42.658;23.350;2023-03-11T09:52:33;106.60;;;99.20;;
2035;SDS011;23642;42.658;23.350;2023-03-11T09:55:11;108.10;;;101.40;;
2035;SDS011;23642;42.658;23.350;2023-03-11T09:57:49;104.07;;;97.40;;
2035;SDS011;23642;42.658;23.350;2023-03-11T10:00:18;105.20;;;98.70;;
2035;SDS011;23642;42.658;23.350;2023-03-11T10:02:48;105.43;;;98.93;;
2035;SDS011;23642;42.658;23.350;2023-03-11T10:05:15;104.77;;;98.10;;
2035;SDS011;23642;42.658;23.350;2023-03-11T10:07:50;102.47;;;95.77;;
2035;SDS011;23642;42.658;23.350;2023-03-11T10:10:22;103.27;;;96.87;;
2035;SDS011;23642;42.658;23.350;2023-03-11T10:12:54;106.40;;;99.70;;
2035;SDS011;23642;42.658;23.350;2023-03-11T10:15:30;103.73;;;97.33;;
2035;SDS011;23642;42.658;23.350;2023-03-11T10:18:16;104.67;;;98.17;;
2035;SDS011;23642;42.658;23.350;2023-03-11T10:20:52;104.87;;;98.37;;
2035;SDS011;23642;42.658;23.350;2023-03-11T10:23:28;105.00;;;98.40;;
2035;SDS011;23642;42.658;23.350;2023-03-11T10:26:11;103.40;;;97.00;;
2035;SDS011;23642;42.658;23.350;2023-03-11T10:28:41;103.43;;;97.03;;
2035;SDS011;23642;42.658;23.350;2023-03-11T10:31:16;104.80;;;98.30;;
2035;SDS011;23642;42.658;23.350;2023-03-11T10:33:48;102.20;;;95.80;;
2035;SDS011;23642;42.658;23.350;2023-03-11T10:36:18;103.60;;;97.17;;
2035;SDS011;23642;42.658;23.350;2023-03-11T10:38:52;102.53;;;96.13;;
2035;SDS011;23642;42.658;23.350;2023-03-11T10:41:23;101.53;;;95.23;;
2035;SDS011;23642;42.658;23.350;2023-03-11T10:43:55;103.10;;;96.70;;
2035;SDS011;23642;42.658;23.350;2023-03-11T10:46:28;102.30;;;95.90;;
2035;SDS011;23642;42.658;23.350;2023-03-11T10:48:55;101.70;;;95.20;;
2035;SDS011;23642;42.658;23.350;2023-03-11T10:51:22;103.67;;;96.60;;
2035;SDS011;23642;42.658;23.350;2023-03-11T10:53:54;103.33;;;96.83;;
2035;SDS011;23642;42.658;23.350;2023-03-11T10:56:28;103.50;;;96.70;;
2035;SDS011;23642;42.658;23.350;2023-03-11T10:58:57;103.67;;;96.90;;
2035;SDS011;23642;42.658;23.350;2023-03-11T11:01:24;103.70;;;97.20;;
2035;SDS011;23642;42.658;23.350;2023-03-11T11:03:53;100.80;;;94.50;;
2035;SDS011;23642;42.658;23.350;2023-03-11T11:06:23;100.80;;;94.60;;
2035;SDS011;23642;42.658;23.350;2023-03-11T11:09:09;101.33;;;95.03;;
2035;SDS011;23642;42.658;23.350;2023-03-11T11:11:41;101.37;;;95.07;;
2035;SDS011;23642;42.658;23.350;2023-03-11T11:14:08;101.30;;;95.00;;
2035;SDS011;23642;42.658;23.350;2023-03-11T11:16:35;103.47;;;96.83;;
2035;SDS011;23642;42.658;23.350;2023-03-11T11:19:04;102.07;;;95.77;;
2035;SDS011;23642;42.658;23.350;2023-03-11T11:21:35;100.37;;;94.07;;
2035;SDS011;23642;42.658;23.350;2023-03-11T11:24:11;101.87;;;95.50;;
2035;SDS011;23642;42.658;23.350;2023-03-11T11:29:29;102.70;;;96.20;;
2035;SDS011;23642;42.658;23.350;2023-03-11T11:32:09;101.43;;;94.87;;
2035;SDS011;23642;42.658;23.350;2023-03-11T11:34:43;102.63;;;96.23;;
2035;SDS011;23642;42.658;23.350;2023-03-11T11:37:19;100.13;;;93.80;;
2035;SDS011;23642;42.658;23.350;2023-03-11T11:39:51;98.40;;;92.30;;
2035;SDS011;23642;42.658;23.350;2023-03-11T11:42:21;101.23;;;94.93;;
2035;SDS011;23642;42.658;23.350;2023-03-11T11:44:52;99.90;;;93.60;;
2035;SDS011;23642;42.658;23.350;2023-03-11T11:47:25;99.67;;;93.37;;
2035;SDS011;23642;42.658;23.350;2023-03-11T11:49:57;101.30;;;94.90;;
2035;SDS011;23642;42.658;23.350;2023-03-11T11:52:41;100.53;;;94.20;;
2035;SDS011;23642;42.658;23.350;2023-03-11T11:55:16;101.67;;;95.17;;
2035;SDS011;23642;42.658;23.350;2023-03-11T11:57:46;100.50;;;94.20;;
2035;SDS011;23642;42.658;23.350;2023-03-11T12:00:15;101.33;;;94.77;;
2035;SDS011;23642;42.658;23.350;2023-03-11T12:02:47;101.77;;;95.40;;
2035;SDS011;23642;42.658;23.350;2023-03-11T12:05:38;99.13;;;92.90;;
2035;SDS011;23642;42.658;23.350;2023-03-11T12:08:15;102.60;;;96.20;;
2035;SDS011;23642;42.658;23.350;2023-03-11T12:10:49;99.80;;;93.53;;
2035;SDS011;23642;42.658;23.350;2023-03-11T12:16:22;103.67;;;96.97;;
2035;SDS011;23642;42.658;23.350;2023-03-11T12:19:02;104.50;;;98.10;;
2035;SDS011;23642;42.658;23.350;2023-03-11T12:21:44;105.43;;;98.00;;
2035;SDS011;23642;42.658;23.350;2023-03-11T12:24:37;101.20;;;94.90;;
2035;SDS011;23642;42.658;23.350;2023-03-11T12:27:17;101.57;;;95.27;;
2035;SDS011;23642;42.658;23.350;2023-03-11T12:29:49;101.47;;;94.80;;
2035;SDS011;23642;42.658;23.350;2023-03-11T12:32:26;102.80;;;96.10;;
2035;SDS011;23642;42.658;23.350;2023-03-11T12:35:00;101.10;;;94.80;;
2035;SDS011;23642;42.658;23.350;2023-03-11T12:37:29;97.70;;;91.70;;
2035;SDS011;23642;42.658;23.350;2023-03-11T12:39:57;100.40;;;94.20;;
2035;SDS011;23642;42.658;23.350;2023-03-11T12:42:25;100.73;;;94.43;;
2035;SDS011;23642;42.658;23.350;2023-03-11T12:51:01;100.23;;;94.03;;
2035;SDS011;23642;42.658;23.350;2023-03-11T12:53:42;99.03;;;92.73;;
2035;SDS011;23642;42.658;23.350;2023-03-11T12:56:15;100.80;;;94.70;;
2035;SDS011;23642;42.658;23.350;2023-03-11T13:02:12;98.30;;;92.30;;
2035;SDS011;23642;42.658;23.350;2023-03-11T13:04:55;99.60;;;93.50;;
2035;SDS011;23642;42.658;23.350;2023-03-11T13:07:40;100.73;;;94.50;;
2035;SDS011;23642;42.658;23.350;2023-03-11T13:10:14;99.27;;;93.17;;
2035;SDS011;23642;42.658;23.350;2023-03-11T13:12:56;98.27;;;92.17;;
2035;SDS011;23642;42.658;23.350;2023-03-11T13:15:34;98.27;;;92.27;;
2035;SDS011;23642;42.658;23.350;2023-03-11T13:20:51;100.20;;;93.60;;
2035;SDS011;23642;42.658;23.350;2023-03-11T13:23:24;99.50;;;93.30;;
2035;SDS011;23642;42.658;23.350;2023-03-11T13:32:19;99.77;;;93.57;;
2035;SDS011;23642;42.658;23.350;2023-03-11T13:35:00;97.13;;;90.93;;
2035;SDS011;23642;42.658;23.350;2023-03-11T13:37:41;99.20;;;92.43;;
2035;SDS011;23642;42.658;23.350;2023-03-11T13:40:16;107.57;;;100.57;;
2035;SDS011;23642;42.658;23.350;2023-03-11T13:42:54;106.23;;;99.03;;
2035;SDS011;23642;42.658;23.350;2023-03-11T13:45:28;103.43;;;96.43;;
2035;SDS011;23642;42.658;23.350;2023-03-11T13:48:00;105.07;;;97.77;;
2035;SDS011;23642;42.658;23.350;2023-03-11T13:50:33;100.43;;;93.60;;
2035;SDS011;23642;42.658;23.350;2023-03-11T13:53:02;97.20;;;90.50;;
2035;SDS011;23642;42.658;23.350;2023-03-11T13:55:34;95.87;;;89.20;;
2035;SDS011;23642;42.658;23.350;2023-03-11T13:58:12;94.20;;;87.70;;
2035;SDS011;23642;42.658;23.350;2023-03-11T14:00:45;94.37;;;87.87;;
2035;SDS011;23642;42.658;23.350;2023-03-11T14:03:15;92.40;;;85.77;;
2035;SDS011;23642;42.658;23.350;2023-03-11T14:05:46;91.10;;;84.60;;
2035;SDS011;23642;42.658;23.350;2023-03-11T14:08:17;88.03;;;82.13;;
2035;SDS011;23642;42.658;23.350;2023-03-11T14:10:51;87.43;;;81.43;;
2035;SDS011;23642;42.658;23.350;2023-03-11T14:13:22;88.50;;;82.40;;
2035;SDS011;23642;42.658;23.350;2023-03-11T14:15:51;85.13;;;79.43;;
2035;SDS011;23642;42.658;23.350;2023-03-11T14:18:28;83.70;;;78.07;;
2035;SDS011;23642;42.658;23.350;2023-03-11T14:21:00;83.00;;;77.50;;
2035;SDS011;23642;42.658;23.350;2023-03-11T14:23:29;82.57;;;76.97;;
2035;SDS011;23642;42.658;23.350;2023-03-11T14:26:00;84.13;;;78.33;;
2035;SDS011;23642;42.658;23.350;2023-03-11T14:28:31;87.17;;;81.13;;
2035;SDS011;23642;42.658;23.350;2023-03-11T14:31:02;89.37;;;83.27;;
2035;SDS011;23642;42.658;23.350;2023-03-11T14:33:31;88.53;;;82.30;;
2035;SDS011;23642;42.658;23.350;2023-03-11T14:35:58;87.87;;;81.67;;
2035;SDS011;23642;42.658;23.350;2023-03-11T14:38:29;88.13;;;81.83;;
2035;SDS011;23642;42.658;23.350;2023-03-11T14:40:58;89.43;;;83.13;;
2035;SDS011;23642;42.658;23.350;2023-03-11T14:43:26;88.37;;;82.30;;
2035;SDS011;23642;42.658;23.350;2023-03-11T14:45:56;90.03;;;83.87;;
2035;SDS011;23642;42.658;23.350;2023-03-11T14:48:25;90.47;;;84.17;;
2035;SDS011;23642;42.658;23.350;2023-03-11T14:50:57;91.50;;;85.00;;
2035;SDS011;23642;42.658;23.350;2023-03-11T14:53:27;93.93;;;87.30;;
2035;SDS011;23642;42.658;23.350;2023-03-11T14:56:01;96.77;;;90.07;;
2035;SDS011;23642;42.658;23.350;2023-03-11T14:58:32;99.87;;;92.97;;